sensor_id;sensor_type;location;lat;lon;timestamp;pressure;altitude;pressure_sealevel;temperature;humidity
69198;BME280;56311;50.298;8.514;2023-07-20T00:00:00;97540.0;;;18.0;66.1
69198;BME280;56311;50.298;8.514;2023-07-20T00:02:00;97540.0;;;18.0;66.3
69198;BME280;56311;50.298;8.514;2023-07-20T00:04:00;97530.0;;;18.0;66.3
69198;BME280;56311;50.298;8.514;2023-07-20T00:06:00;97540.0;;;17.9;66.9
69198;BME280;56311;50.298;8.514;2023-07-20T00:08:00;97540.0;;;17.5;68.7
69198;BME280;56311;50.298;8.514;2023-07-20T00:10:00;97530.0;;;17.6;68.9
69198;BME280;56311;50.298;8.514;2023-07-20T00:12:00;97530.0;;;17.8;68.3
69198;BME280;56311;50.298;8.514;2023-07-20T00:14:00;97530.0;;;17.6;68.8
69198;BME280;56311;50.298;8.514;2023-07-20T00:16:00;97530.0;;;17.6;69.2
69198;BME280;56311;50.298;8.514;2023-07-20T00:18:00;97530.0;;;17.5;69.5
69198;BME280;56311;50.298;8.514;2023-07-20T00:20:00;97540.0;;;17.6;69.4
69198;BME280;56311;50.298;8.514;2023-07-20T00:22:00;97530.0;;;17.6;69.6
69198;BME280;56311;50.298;8.514;2023-07-20T00:24:00;97540.0;;;17.7;69.2
69198;BME280;56311;50.298;8.514;2023-07-20T00:26:00;97530.0;;;17.4;70.5
69198;BME280;56311;50.298;8.514;2023-07-20T00:28:01;97530.0;;;17.4;70.8
69198;BME280;56311;50.298;8.514;2023-07-20T00:30:00;97530.0;;;17.5;70.6
69198;BME280;56311;50.298;8.514;2023-07-20T00:32:00;97530.0;;;17.5;70.6
69198;BME280;56311;50.298;8.514;2023-07-20T00:34:00;97530.0;;;17.5;70.7
69198;BME280;56311;50.298;8.514;2023-07-20T00:36:00;97530.0;;;17.6;70.3
69198;BME280;56311;50.298;8.514;2023-07-20T00:38:00;97530.0;;;17.7;70.2
69198;BME280;56311;50.298;8.514;2023-07-20T00:40:00;97530.0;;;17.9;69.5
69198;BME280;56311;50.298;8.514;2023-07-20T00:42:00;97530.0;;;17.5;70.8
69198;BME280;56311;50.298;8.514;2023-07-20T00:44:00;97530.0;;;17.3;71.3
69198;BME280;56311;50.298;8.514;2023-07-20T00:46:01;97530.0;;;17.5;71.2
69198;BME280;56311;50.298;8.514;2023-07-20T00:48:01;97530.0;;;17.1;72.9
69198;BME280;56311;50.298;8.514;2023-07-20T00:50:01;97530.0;;;17.2;72.6
69198;BME280;56311;50.298;8.514;2023-07-20T00:52:01;97530.0;;;17.3;72.4
69198;BME280;56311;50.298;8.514;2023-07-20T00:54:00;97530.0;;;17.3;72.3
69198;BME280;56311;50.298;8.514;2023-07-20T00:56:00;97530.0;;;17.2;72.6
69198;BME280;56311;50.298;8.514;2023-07-20T00:58:00;97530.0;;;17.3;72.0
69198;BME280;56311;50.298;8.514;2023-07-20T01:00:00;97530.0;;;17.2;72.5
69198;BME280;56311;50.298;8.514;2023-07-20T01:02:00;97530.0;;;17.1;73.2
69198;BME280;56311;50.298;8.514;2023-07-20T01:04:00;97520.0;;;17.0;73.7
69198;BME280;56311;50.298;8.514;2023-07-20T01:06:07;97520.0;;;16.9;74.0
69198;BME280;56311;50.298;8.514;2023-07-20T01:08:07;97520.0;;;17.0;74.1
69198;BME280;56311;50.298;8.514;2023-07-20T01:10:05;97530.0;;;17.1;73.5
69198;BME280;56311;50.298;8.514;2023-07-20T01:12:06;97530.0;;;17.1;73.2
69198;BME280;56311;50.298;8.514;2023-07-20T01:14:00;97530.0;;;17.0;73.9
69198;BME280;56311;50.298;8.514;2023-07-20T01:16:01;97530.0;;;16.9;74.5
69198;BME280;56311;50.298;8.514;2023-07-20T01:18:00;97530.0;;;16.9;74.6
69198;BME280;56311;50.298;8.514;2023-07-20T01:20:00;97530.0;;;16.7;75.8
69198;BME280;56311;50.298;8.514;2023-07-20T01:22:06;97530.0;;;16.6;76.4
69198;BME280;56311;50.298;8.514;2023-07-20T01:24:16;97530.0;;;16.5;77.1
69198;BME280;56311;50.298;8.514;2023-07-20T01:26:12;97530.0;;;16.4;78.0
69198;BME280;56311;50.298;8.514;2023-07-20T01:30:11;97530.0;;;16.3;78.4
69198;BME280;56311;50.298;8.514;2023-07-20T01:32:01;97530.0;;;16.3;78.6
69198;BME280;56311;50.298;8.514;2023-07-20T01:34:02;97530.0;;;16.3;78.8
69198;BME280;56311;50.298;8.514;2023-07-20T01:36:01;97530.0;;;16.3;79.0
69198;BME280;56311;50.298;8.514;2023-07-20T01:38:01;97520.0;;;16.4;78.4
69198;BME280;56311;50.298;8.514;2023-07-20T01:40:01;97530.0;;;16.3;78.7
69198;BME280;56311;50.298;8.514;2023-07-20T01:42:00;97530.0;;;16.3;78.9
69198;BME280;56311;50.298;8.514;2023-07-20T01:44:00;97530.0;;;16.3;79.2
69198;BME280;56311;50.298;8.514;2023-07-20T01:46:00;97530.0;;;16.4;79.1
69198;BME280;56311;50.298;8.514;2023-07-20T01:48:00;97530.0;;;16.3;79.2
69198;BME280;56311;50.298;8.514;2023-07-20T01:50:00;97530.0;;;16.3;79.5
69198;BME280;56311;50.298;8.514;2023-07-20T01:52:00;97530.0;;;16.4;79.1
69198;BME280;56311;50.298;8.514;2023-07-20T01:54:00;97540.0;;;16.4;79.4
69198;BME280;56311;50.298;8.514;2023-07-20T01:56:00;97540.0;;;16.3;79.7
69198;BME280;56311;50.298;8.514;2023-07-20T01:58:00;97540.0;;;16.3;80.2
69198;BME280;56311;50.298;8.514;2023-07-20T02:00:00;97540.0;;;16.4;79.6
69198;BME280;56311;50.298;8.514;2023-07-20T02:02:00;97550.0;;;16.4;79.6
69198;BME280;56311;50.298;8.514;2023-07-20T02:04:00;97540.0;;;16.5;79.4
69198;BME280;56311;50.298;8.514;2023-07-20T02:06:00;97540.0;;;16.5;79.3
69198;BME280;56311;50.298;8.514;2023-07-20T02:08:00;97550.0;;;16.4;79.6
69198;BME280;56311;50.298;8.514;2023-07-20T02:10:02;97550.0;;;16.4;79.9
69198;BME280;56311;50.298;8.514;2023-07-20T02:12:00;97550.0;;;16.3;80.5
69198;BME280;56311;50.298;8.514;2023-07-20T02:14:00;97540.0;;;16.4;80.0
69198;BME280;56311;50.298;8.514;2023-07-20T02:16:00;97540.0;;;16.6;79.8
69198;BME280;56311;50.298;8.514;2023-07-20T02:18:00;97540.0;;;16.5;79.7
69198;BME280;56311;50.298;8.514;2023-07-20T02:20:00;97540.0;;;16.5;80.0
69198;BME280;56311;50.298;8.514;2023-07-20T02:22:00;97540.0;;;16.6;79.5
69198;BME280;56311;50.298;8.514;2023-07-20T02:24:00;97550.0;;;16.5;79.1
69198;BME280;56311;50.298;8.514;2023-07-20T02:26:00;97550.0;;;16.6;79.4
69198;BME280;56311;50.298;8.514;2023-07-20T02:28:00;97550.0;;;16.6;79.5
69198;BME280;56311;50.298;8.514;2023-07-20T02:30:00;97550.0;;;16.6;79.4
69198;BME280;56311;50.298;8.514;2023-07-20T02:32:00;97550.0;;;16.6;79.5
69198;BME280;56311;50.298;8.514;2023-07-20T02:34:00;97550.0;;;16.6;79.9
69198;BME280;56311;50.298;8.514;2023-07-20T02:36:00;97550.0;;;16.7;79.4
69198;BME280;56311;50.298;8.514;2023-07-20T02:38:00;97550.0;;;16.8;79.1
69198;BME280;56311;50.298;8.514;2023-07-20T02:40:00;97550.0;;;16.8;78.9
69198;BME280;56311;50.298;8.514;2023-07-20T02:42:00;97550.0;;;16.9;78.5
69198;BME280;56311;50.298;8.514;2023-07-20T02:44:00;97540.0;;;17.0;78.4
69198;BME280;56311;50.298;8.514;2023-07-20T02:46:00;97550.0;;;16.9;78.7
69198;BME280;56311;50.298;8.514;2023-07-20T02:48:00;97550.0;;;16.9;78.5
69198;BME280;56311;50.298;8.514;2023-07-20T02:50:00;97550.0;;;16.9;78.9
69198;BME280;56311;50.298;8.514;2023-07-20T02:52:00;97550.0;;;16.9;79.0
69198;BME280;56311;50.298;8.514;2023-07-20T02:54:00;97550.0;;;16.9;78.8
69198;BME280;56311;50.298;8.514;2023-07-20T02:56:00;97550.0;;;17.0;78.6
69198;BME280;56311;50.298;8.514;2023-07-20T02:58:00;97550.0;;;17.0;78.4
69198;BME280;56311;50.298;8.514;2023-07-20T03:00:01;97550.0;;;16.9;79.0
69198;BME280;56311;50.298;8.514;2023-07-20T03:02:00;97550.0;;;17.0;78.9
69198;BME280;56311;50.298;8.514;2023-07-20T03:04:00;97540.0;;;17.0;79.1
69198;BME280;56311;50.298;8.514;2023-07-20T03:06:00;97540.0;;;17.1;79.3
69198;BME280;56311;50.298;8.514;2023-07-20T03:08:00;97540.0;;;17.1;79.1
69198;BME280;56311;50.298;8.514;2023-07-20T03:10:00;97540.0;;;17.3;78.3
69198;BME280;56311;50.298;8.514;2023-07-20T03:12:00;97540.0;;;17.4;77.5
69198;BME280;56311;50.298;8.514;2023-07-20T03:14:00;97540.0;;;17.3;77.8
69198;BME280;56311;50.298;8.514;2023-07-20T03:16:00;97540.0;;;17.3;77.8
69198;BME280;56311;50.298;8.514;2023-07-20T03:18:00;97550.0;;;17.4;77.6
69198;BME280;56311;50.298;8.514;2023-07-20T03:20:00;97540.0;;;17.1;78.2
69198;BME280;56311;50.298;8.514;2023-07-20T03:22:00;97540.0;;;17.1;78.5
69198;BME280;56311;50.298;8.514;2023-07-20T03:24:00;97540.0;;;17.1;78.4
69198;BME280;56311;50.298;8.514;2023-07-20T03:26:00;97540.0;;;17.0;78.9
69198;BME280;56311;50.298;8.514;2023-07-20T03:28:00;97540.0;;;17.1;78.4
69198;BME280;56311;50.298;8.514;2023-07-20T03:30:00;97540.0;;;17.2;77.4
69198;BME280;56311;50.298;8.514;2023-07-20T03:32:00;97540.0;;;17.1;77.3
69198;BME280;56311;50.298;8.514;2023-07-20T03:34:00;97540.0;;;17.2;77.0
69198;BME280;56311;50.298;8.514;2023-07-20T03:36:01;97540.0;;;17.3;76.9
69198;BME280;56311;50.298;8.514;2023-07-20T03:38:00;97540.0;;;17.3;76.8
69198;BME280;56311;50.298;8.514;2023-07-20T03:40:00;97540.0;;;17.3;76.5
69198;BME280;56311;50.298;8.514;2023-07-20T03:42:00;97540.0;;;17.2;76.6
69198;BME280;56311;50.298;8.514;2023-07-20T03:44:00;97540.0;;;17.3;76.6
69198;BME280;56311;50.298;8.514;2023-07-20T03:46:00;97540.0;;;17.3;76.8
69198;BME280;56311;50.298;8.514;2023-07-20T03:48:00;97540.0;;;17.2;76.3
69198;BME280;56311;50.298;8.514;2023-07-20T03:50:00;97550.0;;;17.2;76.1
69198;BME280;56311;50.298;8.514;2023-07-20T03:52:00;97550.0;;;17.1;76.2
69198;BME280;56311;50.298;8.514;2023-07-20T03:54:00;97550.0;;;17.0;76.7
69198;BME280;56311;50.298;8.514;2023-07-20T03:56:00;97550.0;;;16.9;76.9
69198;BME280;56311;50.298;8.514;2023-07-20T03:58:00;97550.0;;;16.8;77.9
69198;BME280;56311;50.298;8.514;2023-07-20T04:00:00;97550.0;;;16.8;77.8
69198;BME280;56311;50.298;8.514;2023-07-20T04:02:00;97550.0;;;16.8;78.0
69198;BME280;56311;50.298;8.514;2023-07-20T04:04:00;97550.0;;;16.7;78.6
69198;BME280;56311;50.298;8.514;2023-07-20T04:06:00;97550.0;;;16.4;79.6
69198;BME280;56311;50.298;8.514;2023-07-20T04:08:00;97550.0;;;16.4;80.4
69198;BME280;56311;50.298;8.514;2023-07-20T04:10:00;97550.0;;;16.3;81.3
69198;BME280;56311;50.298;8.514;2023-07-20T04:12:00;97560.0;;;16.3;80.9
69198;BME280;56311;50.298;8.514;2023-07-20T04:14:00;97550.0;;;16.4;81.3
69198;BME280;56311;50.298;8.514;2023-07-20T04:16:00;97560.0;;;16.4;81.0
69198;BME280;56311;50.298;8.514;2023-07-20T04:18:00;97560.0;;;16.4;81.1
69198;BME280;56311;50.298;8.514;2023-07-20T04:20:00;97560.0;;;16.3;81.5
69198;BME280;56311;50.298;8.514;2023-07-20T04:22:00;97560.0;;;16.2;82.4
69198;BME280;56311;50.298;8.514;2023-07-20T04:24:00;97550.0;;;16.2;82.6
69198;BME280;56311;50.298;8.514;2023-07-20T04:26:00;97560.0;;;16.3;82.0
69198;BME280;56311;50.298;8.514;2023-07-20T04:28:00;97550.0;;;16.2;82.5
69198;BME280;56311;50.298;8.514;2023-07-20T04:30:01;97560.0;;;16.2;83.1
69198;BME280;56311;50.298;8.514;2023-07-20T04:32:00;97560.0;;;16.2;83.2
69198;BME280;56311;50.298;8.514;2023-07-20T04:34:00;97560.0;;;16.1;83.5
69198;BME280;56311;50.298;8.514;2023-07-20T04:36:00;97560.0;;;16.1;83.6
69198;BME280;56311;50.298;8.514;2023-07-20T04:38:00;97560.0;;;16.1;84.0
69198;BME280;56311;50.298;8.514;2023-07-20T04:40:00;97560.0;;;16.1;84.4
69198;BME280;56311;50.298;8.514;2023-07-20T04:42:00;97560.0;;;16.1;84.3
69198;BME280;56311;50.298;8.514;2023-07-20T04:44:00;97560.0;;;16.2;84.0
69198;BME280;56311;50.298;8.514;2023-07-20T04:46:00;97560.0;;;16.2;83.9
69198;BME280;56311;50.298;8.514;2023-07-20T04:48:00;97560.0;;;16.3;83.8
69198;BME280;56311;50.298;8.514;2023-07-20T04:50:00;97560.0;;;16.3;83.8
69198;BME280;56311;50.298;8.514;2023-07-20T04:52:02;97560.0;;;16.3;83.7
69198;BME280;56311;50.298;8.514;2023-07-20T04:54:00;97560.0;;;16.4;83.4
69198;BME280;56311;50.298;8.514;2023-07-20T04:56:00;97560.0;;;16.4;83.6
69198;BME280;56311;50.298;8.514;2023-07-20T04:58:00;97560.0;;;16.5;83.2
69198;BME280;56311;50.298;8.514;2023-07-20T05:00:00;97560.0;;;16.5;83.1
69198;BME280;56311;50.298;8.514;2023-07-20T05:02:00;97560.0;;;16.5;83.3
69198;BME280;56311;50.298;8.514;2023-07-20T05:04:00;97560.0;;;16.6;82.9
69198;BME280;56311;50.298;8.514;2023-07-20T05:06:00;97550.0;;;16.5;82.8
69198;BME280;56311;50.298;8.514;2023-07-20T05:08:00;97550.0;;;16.7;82.3
69198;BME280;56311;50.298;8.514;2023-07-20T05:10:00;97550.0;;;16.8;82.1
69198;BME280;56311;50.298;8.514;2023-07-20T05:12:00;97550.0;;;16.8;82.1
69198;BME280;56311;50.298;8.514;2023-07-20T05:14:00;97560.0;;;16.9;81.8
69198;BME280;56311;50.298;8.514;2023-07-20T05:16:00;97560.0;;;17.0;81.5
69198;BME280;56311;50.298;8.514;2023-07-20T05:18:00;97550.0;;;17.1;81.1
69198;BME280;56311;50.298;8.514;2023-07-20T05:20:00;97560.0;;;16.8;81.7
69198;BME280;56311;50.298;8.514;2023-07-20T05:22:00;97560.0;;;16.9;81.8
69198;BME280;56311;50.298;8.514;2023-07-20T05:24:00;97550.0;;;16.8;82.4
69198;BME280;56311;50.298;8.514;2023-07-20T05:26:00;97560.0;;;16.9;82.5
69198;BME280;56311;50.298;8.514;2023-07-20T05:28:00;97560.0;;;16.8;82.5
69198;BME280;56311;50.298;8.514;2023-07-20T05:30:00;97560.0;;;16.6;83.3
69198;BME280;56311;50.298;8.514;2023-07-20T05:32:00;97560.0;;;16.8;83.2
69198;BME280;56311;50.298;8.514;2023-07-20T05:34:00;97560.0;;;16.8;82.7
69198;BME280;56311;50.298;8.514;2023-07-20T05:36:00;97560.0;;;17.0;82.2
69198;BME280;56311;50.298;8.514;2023-07-20T05:38:00;97570.0;;;16.9;82.1
69198;BME280;56311;50.298;8.514;2023-07-20T05:40:00;97570.0;;;16.7;83.0
69198;BME280;56311;50.298;8.514;2023-07-20T05:42:00;97570.0;;;17.0;82.2
69198;BME280;56311;50.298;8.514;2023-07-20T05:44:00;97570.0;;;16.9;82.2
69198;BME280;56311;50.298;8.514;2023-07-20T05:46:00;97570.0;;;17.2;81.7
69198;BME280;56311;50.298;8.514;2023-07-20T05:48:00;97570.0;;;17.3;80.9
69198;BME280;56311;50.298;8.514;2023-07-20T05:50:00;97570.0;;;17.4;79.8
69198;BME280;56311;50.298;8.514;2023-07-20T05:52:00;97570.0;;;17.4;79.4
69198;BME280;56311;50.298;8.514;2023-07-20T05:54:00;97570.0;;;17.3;79.7
69198;BME280;56311;50.298;8.514;2023-07-20T05:56:00;97580.0;;;17.2;80.2
69198;BME280;56311;50.298;8.514;2023-07-20T05:58:00;97580.0;;;17.2;80.2
69198;BME280;56311;50.298;8.514;2023-07-20T06:00:00;97580.0;;;17.3;80.2
69198;BME280;56311;50.298;8.514;2023-07-20T06:02:00;97580.0;;;17.3;79.9
69198;BME280;56311;50.298;8.514;2023-07-20T06:04:00;97580.0;;;17.2;80.6
69198;BME280;56311;50.298;8.514;2023-07-20T06:06:01;97580.0;;;17.3;79.7
69198;BME280;56311;50.298;8.514;2023-07-20T06:08:00;97580.0;;;17.5;78.7
69198;BME280;56311;50.298;8.514;2023-07-20T06:10:00;97580.0;;;17.5;78.2
69198;BME280;56311;50.298;8.514;2023-07-20T06:12:00;97590.0;;;17.7;77.2
69198;BME280;56311;50.298;8.514;2023-07-20T06:14:00;97590.0;;;17.7;77.4
69198;BME280;56311;50.298;8.514;2023-07-20T06:16:00;97600.0;;;17.6;77.7
69198;BME280;56311;50.298;8.514;2023-07-20T06:18:00;97600.0;;;17.8;77.5
69198;BME280;56311;50.298;8.514;2023-07-20T06:20:00;97600.0;;;18.0;77.2
69198;BME280;56311;50.298;8.514;2023-07-20T06:22:00;97610.0;;;17.8;77.5
69198;BME280;56311;50.298;8.514;2023-07-20T06:24:00;97610.0;;;17.8;77.5
69198;BME280;56311;50.298;8.514;2023-07-20T06:26:00;97610.0;;;17.8;77.2
69198;BME280;56311;50.298;8.514;2023-07-20T06:28:00;97610.0;;;17.9;77.3
69198;BME280;56311;50.298;8.514;2023-07-20T06:30:00;97610.0;;;17.8;77.7
69198;BME280;56311;50.298;8.514;2023-07-20T06:32:00;97610.0;;;17.6;78.6
69198;BME280;56311;50.298;8.514;2023-07-20T06:34:00;97610.0;;;17.5;79.7
69198;BME280;56311;50.298;8.514;2023-07-20T06:36:00;97610.0;;;17.3;80.3
69198;BME280;56311;50.298;8.514;2023-07-20T06:38:00;97610.0;;;17.4;80.6
69198;BME280;56311;50.298;8.514;2023-07-20T06:40:01;97610.0;;;17.5;80.1
69198;BME280;56311;50.298;8.514;2023-07-20T06:42:00;97610.0;;;17.6;79.6
69198;BME280;56311;50.298;8.514;2023-07-20T06:44:00;97620.0;;;17.8;78.7
69198;BME280;56311;50.298;8.514;2023-07-20T06:46:00;97620.0;;;17.9;78.3
69198;BME280;56311;50.298;8.514;2023-07-20T06:48:00;97620.0;;;18.0;77.6
69198;BME280;56311;50.298;8.514;2023-07-20T06:50:00;97620.0;;;18.0;77.1
69198;BME280;56311;50.298;8.514;2023-07-20T06:52:00;97610.0;;;17.7;77.4
69198;BME280;56311;50.298;8.514;2023-07-20T06:54:01;97620.0;;;18.0;76.6
69198;BME280;56311;50.298;8.514;2023-07-20T06:56:00;97620.0;;;17.8;76.2
69198;BME280;56311;50.298;8.514;2023-07-20T06:58:01;97620.0;;;18.0;74.9
69198;BME280;56311;50.298;8.514;2023-07-20T07:00:00;97620.0;;;17.7;75.2
69198;BME280;56311;50.298;8.514;2023-07-20T07:02:00;97630.0;;;18.0;74.4
69198;BME280;56311;50.298;8.514;2023-07-20T07:04:00;97620.0;;;17.9;73.8
69198;BME280;56311;50.298;8.514;2023-07-20T07:06:00;97630.0;;;18.0;74.0
69198;BME280;56311;50.298;8.514;2023-07-20T07:08:00;97630.0;;;18.1;73.0
69198;BME280;56311;50.298;8.514;2023-07-20T07:10:02;97630.0;;;18.0;73.1
69198;BME280;56311;50.298;8.514;2023-07-20T07:12:00;97630.0;;;18.3;72.4
69198;BME280;56311;50.298;8.514;2023-07-20T07:14:00;97630.0;;;18.4;72.2
69198;BME280;56311;50.298;8.514;2023-07-20T07:16:00;97630.0;;;18.5;71.6
69198;BME280;56311;50.298;8.514;2023-07-20T07:18:00;97630.0;;;18.2;71.5
69198;BME280;56311;50.298;8.514;2023-07-20T07:20:00;97630.0;;;18.3;71.3
69198;BME280;56311;50.298;8.514;2023-07-20T07:22:00;97630.0;;;18.2;71.9
69198;BME280;56311;50.298;8.514;2023-07-20T07:24:00;97630.0;;;18.2;72.0
69198;BME280;56311;50.298;8.514;2023-07-20T07:26:00;97630.0;;;18.2;71.7
69198;BME280;56311;50.298;8.514;2023-07-20T07:28:00;97640.0;;;18.4;71.5
69198;BME280;56311;50.298;8.514;2023-07-20T07:30:00;97640.0;;;18.4;71.4
69198;BME280;56311;50.298;8.514;2023-07-20T07:32:00;97640.0;;;18.3;71.3
69198;BME280;56311;50.298;8.514;2023-07-20T07:34:00;97640.0;;;18.5;70.7
69198;BME280;56311;50.298;8.514;2023-07-20T07:36:00;97630.0;;;18.7;69.9
69198;BME280;56311;50.298;8.514;2023-07-20T07:38:00;97640.0;;;18.9;69.3
69198;BME280;56311;50.298;8.514;2023-07-20T07:40:00;97640.0;;;18.9;68.5
69198;BME280;56311;50.298;8.514;2023-07-20T07:42:00;97640.0;;;19.2;67.4
69198;BME280;56311;50.298;8.514;2023-07-20T07:44:00;97630.0;;;19.5;66.8
69198;BME280;56311;50.298;8.514;2023-07-20T07:46:00;97630.0;;;19.7;65.0
69198;BME280;56311;50.298;8.514;2023-07-20T07:48:00;97640.0;;;19.7;64.4
69198;BME280;56311;50.298;8.514;2023-07-20T07:50:00;97640.0;;;19.2;65.2
69198;BME280;56311;50.298;8.514;2023-07-20T07:52:00;97640.0;;;19.2;65.3
69198;BME280;56311;50.298;8.514;2023-07-20T07:54:00;97640.0;;;19.4;65.0
69198;BME280;56311;50.298;8.514;2023-07-20T07:56:00;97640.0;;;19.6;63.4
69198;BME280;56311;50.298;8.514;2023-07-20T07:58:00;97640.0;;;19.7;63.3
69198;BME280;56311;50.298;8.514;2023-07-20T08:00:00;97630.0;;;19.4;63.6
69198;BME280;56311;50.298;8.514;2023-07-20T08:02:00;97640.0;;;19.5;63.6
69198;BME280;56311;50.298;8.514;2023-07-20T08:04:00;97640.0;;;19.4;64.9
69198;BME280;56311;50.298;8.514;2023-07-20T08:06:00;97640.0;;;19.5;64.5
69198;BME280;56311;50.298;8.514;2023-07-20T08:08:00;97640.0;;;19.7;64.2
69198;BME280;56311;50.298;8.514;2023-07-20T08:10:00;97640.0;;;19.7;63.3
69198;BME280;56311;50.298;8.514;2023-07-20T08:12:00;97640.0;;;19.7;63.6
69198;BME280;56311;50.298;8.514;2023-07-20T08:14:00;97640.0;;;19.7;63.6
69198;BME280;56311;50.298;8.514;2023-07-20T08:16:01;97640.0;;;19.8;62.2
69198;BME280;56311;50.298;8.514;2023-07-20T08:18:00;97640.0;;;19.8;62.2
69198;BME280;56311;50.298;8.514;2023-07-20T08:20:00;97640.0;;;20.1;61.7
69198;BME280;56311;50.298;8.514;2023-07-20T08:22:00;97640.0;;;20.3;60.8
69198;BME280;56311;50.298;8.514;2023-07-20T08:24:00;97650.0;;;20.6;60.5
69198;BME280;56311;50.298;8.514;2023-07-20T08:26:00;97650.0;;;20.4;60.4
69198;BME280;56311;50.298;8.514;2023-07-20T08:28:00;97660.0;;;20.5;59.9
69198;BME280;56311;50.298;8.514;2023-07-20T08:30:00;97660.0;;;19.8;61.8
69198;BME280;56311;50.298;8.514;2023-07-20T08:32:01;97660.0;;;19.9;62.2
69198;BME280;56311;50.298;8.514;2023-07-20T08:34:00;97650.0;;;19.8;62.7
69198;BME280;56311;50.298;8.514;2023-07-20T08:36:01;97650.0;;;20.3;61.5
69198;BME280;56311;50.298;8.514;2023-07-20T08:38:00;97650.0;;;20.0;61.4
69198;BME280;56311;50.298;8.514;2023-07-20T08:40:00;97650.0;;;19.9;61.5
69198;BME280;56311;50.298;8.514;2023-07-20T08:42:01;97650.0;;;19.7;62.2
69198;BME280;56311;50.298;8.514;2023-07-20T08:44:01;97650.0;;;19.6;62.6
69198;BME280;56311;50.298;8.514;2023-07-20T08:46:00;97660.0;;;19.6;62.8
69198;BME280;56311;50.298;8.514;2023-07-20T08:48:01;97660.0;;;20.0;61.1
69198;BME280;56311;50.298;8.514;2023-07-20T08:50:02;97650.0;;;20.6;58.7
69198;BME280;56311;50.298;8.514;2023-07-20T08:52:00;97650.0;;;20.8;57.3
69198;BME280;56311;50.298;8.514;2023-07-20T08:54:01;97660.0;;;21.5;56.3
69198;BME280;56311;50.298;8.514;2023-07-20T08:56:02;97660.0;;;21.6;54.4
69198;BME280;56311;50.298;8.514;2023-07-20T08:58:00;97650.0;;;21.1;55.0
69198;BME280;56311;50.298;8.514;2023-07-20T09:00:02;97660.0;;;20.8;56.3
69198;BME280;56311;50.298;8.514;2023-07-20T09:02:02;97660.0;;;20.7;57.1
69198;BME280;56311;50.298;8.514;2023-07-20T09:04:01;97650.0;;;20.7;57.4
69198;BME280;56311;50.298;8.514;2023-07-20T09:06:00;97650.0;;;21.1;56.7
69198;BME280;56311;50.298;8.514;2023-07-20T09:08:00;97650.0;;;21.7;54.5
69198;BME280;56311;50.298;8.514;2023-07-20T09:10:00;97650.0;;;21.8;52.6
69198;BME280;56311;50.298;8.514;2023-07-20T09:12:00;97650.0;;;21.7;53.6
69198;BME280;56311;50.298;8.514;2023-07-20T09:14:04;97650.0;;;21.0;53.5
69198;BME280;56311;50.298;8.514;2023-07-20T09:16:00;97650.0;;;20.6;54.5
69198;BME280;56311;50.298;8.514;2023-07-20T09:18:01;97650.0;;;20.7;54.8
69198;BME280;56311;50.298;8.514;2023-07-20T09:20:03;97650.0;;;20.8;54.6
69198;BME280;56311;50.298;8.514;2023-07-20T09:22:00;97650.0;;;21.5;53.7
69198;BME280;56311;50.298;8.514;2023-07-20T09:24:00;97660.0;;;21.6;52.3
69198;BME280;56311;50.298;8.514;2023-07-20T09:26:01;97660.0;;;22.0;51.6
69198;BME280;56311;50.298;8.514;2023-07-20T09:28:02;97660.0;;;22.0;51.4
69198;BME280;56311;50.298;8.514;2023-07-20T09:30:00;97650.0;;;22.3;51.3
69198;BME280;56311;50.298;8.514;2023-07-20T09:32:01;97660.0;;;22.3;50.8
69198;BME280;56311;50.298;8.514;2023-07-20T09:34:00;97660.0;;;22.2;50.8
69198;BME280;56311;50.298;8.514;2023-07-20T09:36:02;97660.0;;;22.7;49.6
69198;BME280;56311;50.298;8.514;2023-07-20T09:38:01;97660.0;;;22.9;48.8
69198;BME280;56311;50.298;8.514;2023-07-20T09:40:00;97660.0;;;23.3;47.9
69198;BME280;56311;50.298;8.514;2023-07-20T09:42:00;97650.0;;;23.6;46.9
69198;BME280;56311;50.298;8.514;2023-07-20T09:44:00;97650.0;;;23.7;46.3
69198;BME280;56311;50.298;8.514;2023-07-20T09:46:00;97660.0;;;23.2;47.6
69198;BME280;56311;50.298;8.514;2023-07-20T09:48:04;97660.0;;;22.0;50.4
69198;BME280;56311;50.298;8.514;2023-07-20T09:50:00;97660.0;;;21.8;51.1
69198;BME280;56311;50.298;8.514;2023-07-20T09:52:01;97660.0;;;21.3;51.9
69198;BME280;56311;50.298;8.514;2023-07-20T09:54:00;97660.0;;;21.3;52.4
69198;BME280;56311;50.298;8.514;2023-07-20T09:56:00;97650.0;;;21.6;52.0
69198;BME280;56311;50.298;8.514;2023-07-20T09:58:00;97650.0;;;22.3;51.0
69198;BME280;56311;50.298;8.514;2023-07-20T10:00:04;97650.0;;;22.6;49.3
69198;BME280;56311;50.298;8.514;2023-07-20T10:02:02;97650.0;;;22.8;48.3
69198;BME280;56311;50.298;8.514;2023-07-20T10:04:03;97650.0;;;22.9;47.6
69198;BME280;56311;50.298;8.514;2023-07-20T10:06:05;97650.0;;;23.2;46.2
69198;BME280;56311;50.298;8.514;2023-07-20T10:08:02;97630.0;;;23.2;46.8
69198;BME280;56311;50.298;8.514;2023-07-20T10:10:02;97640.0;;;23.2;46.3
69198;BME280;56311;50.298;8.514;2023-07-20T10:12:01;97630.0;;;23.4;45.3
69198;BME280;56311;50.298;8.514;2023-07-20T10:14:03;97640.0;;;23.0;45.6
69198;BME280;56311;50.298;8.514;2023-07-20T10:16:02;97640.0;;;23.0;44.8
69198;BME280;56311;50.298;8.514;2023-07-20T10:18:04;97640.0;;;23.0;45.4
69198;BME280;56311;50.298;8.514;2023-07-20T10:20:01;97640.0;;;22.8;46.3
69198;BME280;56311;50.298;8.514;2023-07-20T10:22:03;97640.0;;;22.5;46.5
69198;BME280;56311;50.298;8.514;2023-07-20T10:24:01;97640.0;;;21.9;47.9
69198;BME280;56311;50.298;8.514;2023-07-20T10:26:01;97640.0;;;21.5;48.7
69198;BME280;56311;50.298;8.514;2023-07-20T10:28:01;97630.0;;;21.6;49.4
69198;BME280;56311;50.298;8.514;2023-07-20T10:30:00;97630.0;;;21.6;48.9
69198;BME280;56311;50.298;8.514;2023-07-20T10:32:00;97630.0;;;22.3;46.0
69198;BME280;56311;50.298;8.514;2023-07-20T10:34:01;97630.0;;;22.7;44.5
69198;BME280;56311;50.298;8.514;2023-07-20T10:36:02;97620.0;;;22.9;43.4
69198;BME280;56311;50.298;8.514;2023-07-20T10:38:01;97620.0;;;23.0;42.7
69198;BME280;56311;50.298;8.514;2023-07-20T10:42:01;97610.0;;;23.5;42.1
69198;BME280;56311;50.298;8.514;2023-07-20T10:44:01;97610.0;;;23.5;41.2
69198;BME280;56311;50.298;8.514;2023-07-20T10:46:00;97600.0;;;24.0;41.3
69198;BME280;56311;50.298;8.514;2023-07-20T10:48:03;97600.0;;;24.5;40.0
69198;BME280;56311;50.298;8.514;2023-07-20T10:50:01;97600.0;;;24.0;39.9
69198;BME280;56311;50.298;8.514;2023-07-20T10:52:04;97600.0;;;23.9;40.3
69198;BME280;56311;50.298;8.514;2023-07-20T10:54:02;97590.0;;;23.6;40.8
69198;BME280;56311;50.298;8.514;2023-07-20T10:56:11;97590.0;;;23.2;42.0
69198;BME280;56311;50.298;8.514;2023-07-20T10:58:09;97600.0;;;22.9;42.7
69198;BME280;56311;50.298;8.514;2023-07-20T11:00:09;97610.0;;;22.6;43.3
69198;BME280;56311;50.298;8.514;2023-07-20T11:02:06;97600.0;;;22.2;43.8
69198;BME280;56311;50.298;8.514;2023-07-20T11:04:00;97610.0;;;22.6;43.0